Historyczne dane pomiarowe

Dodano dane terminowe – wersja testowa.

Dane z okresu 1951-2019

Wersja bazy: 1.34 [2019-03-16, lista zmian], aktualizacja planowana na 2019-04-15

Dane meteo z obszaru Polski uzyskane na podstawie danych udostępnionych przez Instytut Meteorologii i Gospodarki Wodnej – Państwowy Instytut Badawczy.

 

Wybierz Datę:    

       

TemperaturaWilgotnośćWiatrCiśnienieOpadyŚniegCzas trwania zjawisk
 Stacja t tx tn tng RH VA  wxwx mslp ppp RRR   cm mm wxwxwxwxwxwxwx
1983-08-14 13.6 18.5 7.9 4.1-- 5.3 2.7---- 0.0------------
1983-08-13 15.0 21.7 13.0 12.5-- 6.7 4.3---- 1.5------------
1983-08-12 19.2 26.7 12.6 10.6-- 1.7 1.3---- 6.5------------
1983-08-11 20.1 27.6 12.5 10.2-- 0.0 0.7---- 0.0------------
1983-08-10 20.1 26.3 12.9 11.0-- 1.3 0.3---- 0.0------------
1983-08-09 19.6 26.7 12.6 11.0-- 3.7 1.7---- 0.0------------
1983-08-08 18.0 25.5 14.4 12.9-- 6.3 2.7---- 2.6------------
1983-08-07 17.9 23.9 13.4 10.0-- 7.0 3.0---- 7.4------------
1983-08-06 16.2 20.9 12.2 10.9-- 6.7 1.0---- 1.0------------
1983-08-05 14.2 18.2 10.7 10.5-- 4.0 1.7---- 0.0------------
1983-08-04 12.5 17.5 11.6 11.5-- 8.0 2.7---- 4.1------------
1983-08-03 17.7 21.9 16.6 16.5-- 5.7 1.7---- 1.7------------
1983-08-02 21.2 27.7 16.8 15.3-- 5.3 1.7---- 1.4------------
1983-08-01 22.0 30.2 11.4 8.0-- 0.0 4.0---- 0.0------------
1983-07-31 18.0 25.0 8.5 5.0-- 0.0 0.3---- 0.0------------
1983-07-30 17.7 21.3 15.8 15.0-- 4.7 5.3---- 0.0------------
1983-07-29 19.7 24.9 13.4 9.9-- 5.3 5.0---- 2.4------------
1983-07-28 23.8 28.6 19.9 16.8-- 4.3 5.3---- 0.0------------
1983-07-27 23.3 32.8 12.0 9.8-- 3.0 0.7---- 0.0------------
1983-07-26 20.8 29.5 11.0 7.4-- 0.0 2.0---- 0.0------------
1983-07-25 16.4 23.9 8.5 5.6-- 4.0 1.3---- 0.0------------
1983-07-24 17.1 20.6 16.0 12.9-- 7.0 1.3---- 3.3------------
1983-07-23 17.8 24.1 12.7 11.2-- 4.3 4.7---- 0.0------------
1983-07-22 13.3 16.1 10.0 7.7-- 8.0 4.3---- 0.4------------
1983-07-21 13.5 18.6 9.0 7.1-- 2.0 6.3---- 0.0------------
1983-07-20 14.8 23.3 12.0 12.7-- 7.0 3.7---- 3.4------------
1983-07-19 23.5 29.1 20.0 18.3-- 5.3 3.7---- 0.6------------
1983-07-18 23.5 32.3 12.3 9.7-- 0.0 0.7---- 0.0------------
1983-07-17 19.6 25.4 14.4 12.4-- 1.3 1.0---- 0.0------------
1983-07-16 18.8 27.9 13.2 12.0-- 5.3 2.7---- 2.6------------
1983-07-15 18.8 26.1 9.2 6.0-- 0.3 1.3---- 0.0------------
1983-07-14 19.7 25.1 16.7 15.7-- 3.3 3.7---- 0.0------------
1983-07-13 21.3 28.1 15.3 12.2-- 3.7 3.7---- 5.7------------
1983-07-12 20.1 28.0 16.5 12.9-- 4.7 1.0---- 4.7------------
1983-07-11 22.1 30.2 16.2 13.9-- 5.3 1.7---- 2.0------------
1983-07-10 23.5 30.2 13.8 9.8-- 2.7 2.0---- 0.0------------
1983-07-09 21.5 28.5 12.0 8.0-- 1.0 1.3---- 0.0------------
1983-07-08 20.2 27.7 10.4 5.7-- 0.3 3.3---- 0.0------------
1983-07-07 21.9 28.3 13.1 10.4-- 0.3 2.7---- 0.0------------
1983-07-06 21.3 29.2 10.3 8.4-- 0.3 2.3---- 0.0------------
1983-07-05 18.9 25.8 11.7 8.5-- 2.3 1.3---- 0.0------------
1983-07-04 20.3 27.2 12.8 9.4-- 2.0 1.0---- 0.0------------
1983-07-03 18.9 26.4 10.0 6.0-- 2.7 1.0---- 0.0------------
1983-07-02 18.3 24.2 13.8 13.6-- 2.7 2.7---- 0.0------------
1983-07-01 19.6 27.2 11.0 9.0-- 1.3 0.7---- 0.1------------
1983-06-30 18.2 24.3 11.5 8.6-- 1.3 1.0---- 0.0------------
1983-06-29 14.2 19.3 7.5 5.5-- 0.3 1.0---- 0.0------------
1983-06-28 16.1 21.0 14.4 14.1-- 5.0 1.3---- 0.0------------
1983-06-27 20.3 25.5 15.1 11.7-- 4.3 3.0---- 5.5------------
1983-06-26 21.0 25.6 13.7 11.0-- 0.3 2.3---- 0.0------------
1983-06-25 21.3 29.6 14.0 9.5-- 2.7 4.0---- 0.0------------
1983-06-24 19.2 27.5 6.0 3.8-- 0.0 1.0---- 0.0------------
1983-06-23 15.5 22.0 5.0 1.8-- 0.0 0.7---- 0.0------------
1983-06-22 14.4 20.7 6.9 5.1-- 0.3 4.0---- 0.0------------
1983-06-21 18.8 24.8 11.6 12.2-- 0.0 4.3---- 0.0------------
1983-06-20 18.4 24.8 12.5 11.8-- 2.3 3.0---- 0.0------------
1983-06-19 15.8 20.0 12.5 12.4-- 6.0 4.3---- 0.2------------
1983-06-18 12.9 15.6 10.5 9.8-- 6.7 3.7---- 0.0------------
1983-06-17 12.4 17.2 7.4 5.5-- 5.7 3.0---- 0.8------------
1983-06-16 13.6 16.4 10.5 10.3-- 6.3 4.0---- 0.0------------
391.1 ms

 

Źródłem pochodzenia danych jest Instytut Meteorologii i Gospodarki Wodnej – Państwowy Instytut Badawczy. Dane Instytutu Meteorologii i Gospodarki Wodnej – Państwowego Instytutu Badawczego zostały przetworzone.

Dane źródłowe można odnaleźć na stronie https://dane.imgw.pl